sensor_id;sensor_type;location;lat;lon;timestamp;temperature;humidity
17659;DHT22;8948;51.534;8.262;2024-02-21T00:01:30;8.70;75.30
17659;DHT22;8948;51.534;8.262;2024-02-21T00:06:31;8.70;75.10
17659;DHT22;8948;51.534;8.262;2024-02-21T00:11:31;8.70;75.90
17659;DHT22;8948;51.534;8.262;2024-02-21T00:16:32;8.70;76.00
17659;DHT22;8948;51.534;8.262;2024-02-21T00:21:32;8.70;76.20
17659;DHT22;8948;51.534;8.262;2024-02-21T00:26:33;8.70;76.00
17659;DHT22;8948;51.534;8.262;2024-02-21T00:31:33;8.60;76.10
17659;DHT22;8948;51.534;8.262;2024-02-21T00:36:34;8.70;76.20
17659;DHT22;8948;51.534;8.262;2024-02-21T00:41:34;8.70;76.20
17659;DHT22;8948;51.534;8.262;2024-02-21T00:46:35;8.60;76.10
17659;DHT22;8948;51.534;8.262;2024-02-21T00:51:36;8.70;75.90
17659;DHT22;8948;51.534;8.262;2024-02-21T00:56:36;8.70;75.40
17659;DHT22;8948;51.534;8.262;2024-02-21T01:01:37;8.70;75.50
17659;DHT22;8948;51.534;8.262;2024-02-21T01:06:37;8.80;75.20
17659;DHT22;8948;51.534;8.262;2024-02-21T01:11:38;8.80;75.30
17659;DHT22;8948;51.534;8.262;2024-02-21T01:16:38;8.80;75.20
17659;DHT22;8948;51.534;8.262;2024-02-21T01:21:39;8.80;75.00
17659;DHT22;8948;51.534;8.262;2024-02-21T01:26:40;8.80;75.20
17659;DHT22;8948;51.534;8.262;2024-02-21T01:31:40;8.80;75.00
17659;DHT22;8948;51.534;8.262;2024-02-21T01:36:41;8.80;75.20
17659;DHT22;8948;51.534;8.262;2024-02-21T01:41:42;8.80;75.10
17659;DHT22;8948;51.534;8.262;2024-02-21T01:46:42;8.70;74.80
17659;DHT22;8948;51.534;8.262;2024-02-21T01:51:44;8.70;74.70
17659;DHT22;8948;51.534;8.262;2024-02-21T01:56:46;8.70;74.80
17659;DHT22;8948;51.534;8.262;2024-02-21T02:01:46;8.60;74.80
17659;DHT22;8948;51.534;8.262;2024-02-21T02:06:48;8.60;75.10
17659;DHT22;8948;51.534;8.262;2024-02-21T02:11:49;8.60;75.00
17659;DHT22;8948;51.534;8.262;2024-02-21T02:16:50;8.60;75.00
17659;DHT22;8948;51.534;8.262;2024-02-21T02:21:58;8.70;74.90
17659;DHT22;8948;51.534;8.262;2024-02-21T02:27:01;8.70;74.70
17659;DHT22;8948;51.534;8.262;2024-02-21T02:32:02;8.70;74.50
17659;DHT22;8948;51.534;8.262;2024-02-21T02:37:02;8.60;74.60
17659;DHT22;8948;51.534;8.262;2024-02-21T02:42:03;8.70;74.60
17659;DHT22;8948;51.534;8.262;2024-02-21T02:47:04;8.70;74.60
17659;DHT22;8948;51.534;8.262;2024-02-21T02:52:05;8.60;74.60
17659;DHT22;8948;51.534;8.262;2024-02-21T02:57:05;8.70;74.10
17659;DHT22;8948;51.534;8.262;2024-02-21T03:02:06;8.70;74.40
17659;DHT22;8948;51.534;8.262;2024-02-21T03:07:07;8.70;73.90
17659;DHT22;8948;51.534;8.262;2024-02-21T03:12:08;8.70;73.30
17659;DHT22;8948;51.534;8.262;2024-02-21T03:17:08;8.80;73.70
17659;DHT22;8948;51.534;8.262;2024-02-21T03:22:09;8.70;73.30
17659;DHT22;8948;51.534;8.262;2024-02-21T03:27:09;8.70;73.80
17659;DHT22;8948;51.534;8.262;2024-02-21T03:32:10;8.70;73.60
17659;DHT22;8948;51.534;8.262;2024-02-21T03:37:10;8.60;73.60
17659;DHT22;8948;51.534;8.262;2024-02-21T03:42:12;8.50;73.70
17659;DHT22;8948;51.534;8.262;2024-02-21T03:47:12;8.40;73.70
17659;DHT22;8948;51.534;8.262;2024-02-21T03:52:13;8.40;73.60
17659;DHT22;8948;51.534;8.262;2024-02-21T03:57:13;8.30;73.30
17659;DHT22;8948;51.534;8.262;2024-02-21T04:02:14;8.30;73.60
17659;DHT22;8948;51.534;8.262;2024-02-21T04:07:15;8.20;73.60
17659;DHT22;8948;51.534;8.262;2024-02-21T04:12:15;8.30;73.50
17659;DHT22;8948;51.534;8.262;2024-02-21T04:17:16;8.30;73.40
17659;DHT22;8948;51.534;8.262;2024-02-21T04:22:16;8.30;73.30
17659;DHT22;8948;51.534;8.262;2024-02-21T04:27:17;8.30;73.40
17659;DHT22;8948;51.534;8.262;2024-02-21T04:32:17;8.40;73.20
17659;DHT22;8948;51.534;8.262;2024-02-21T04:37:18;8.50;73.90
17659;DHT22;8948;51.534;8.262;2024-02-21T04:42:19;8.70;72.50
17659;DHT22;8948;51.534;8.262;2024-02-21T04:47:19;8.70;72.10
17659;DHT22;8948;51.534;8.262;2024-02-21T04:52:20;8.70;72.00
17659;DHT22;8948;51.534;8.262;2024-02-21T04:57:21;8.70;72.60
17659;DHT22;8948;51.534;8.262;2024-02-21T05:02:21;8.70;72.00
17659;DHT22;8948;51.534;8.262;2024-02-21T05:07:24;8.70;72.10
17659;DHT22;8948;51.534;8.262;2024-02-21T05:12:24;8.70;72.50
17659;DHT22;8948;51.534;8.262;2024-02-21T05:17:25;8.60;72.20
17659;DHT22;8948;51.534;8.262;2024-02-21T05:22:26;8.60;72.60
17659;DHT22;8948;51.534;8.262;2024-02-21T05:27:26;8.60;72.90
17659;DHT22;8948;51.534;8.262;2024-02-21T05:32:27;8.60;72.60
17659;DHT22;8948;51.534;8.262;2024-02-21T05:37:27;8.60;72.30
17659;DHT22;8948;51.534;8.262;2024-02-21T05:42:28;8.60;72.60
17659;DHT22;8948;51.534;8.262;2024-02-21T05:47:28;8.60;72.30
17659;DHT22;8948;51.534;8.262;2024-02-21T05:52:29;8.60;72.50
17659;DHT22;8948;51.534;8.262;2024-02-21T05:57:29;8.60;72.20
17659;DHT22;8948;51.534;8.262;2024-02-21T06:02:31;8.60;72.60
17659;DHT22;8948;51.534;8.262;2024-02-21T06:07:32;8.70;72.90
17659;DHT22;8948;51.534;8.262;2024-02-21T06:12:32;8.60;72.60
17659;DHT22;8948;51.534;8.262;2024-02-21T06:17:33;8.60;72.70
17659;DHT22;8948;51.534;8.262;2024-02-21T06:22:33;8.70;72.90
17659;DHT22;8948;51.534;8.262;2024-02-21T06:27:34;8.60;73.00
17659;DHT22;8948;51.534;8.262;2024-02-21T06:32:34;8.60;72.90
17659;DHT22;8948;51.534;8.262;2024-02-21T06:37:35;8.70;72.70
17659;DHT22;8948;51.534;8.262;2024-02-21T06:42:35;8.60;72.50
17659;DHT22;8948;51.534;8.262;2024-02-21T06:47:36;8.50;72.90
17659;DHT22;8948;51.534;8.262;2024-02-21T06:52:37;8.50;72.80
17659;DHT22;8948;51.534;8.262;2024-02-21T06:57:37;8.40;72.80
17659;DHT22;8948;51.534;8.262;2024-02-21T07:02:38;8.40;73.00
17659;DHT22;8948;51.534;8.262;2024-02-21T07:07:38;8.30;73.20
17659;DHT22;8948;51.534;8.262;2024-02-21T07:12:40;8.40;72.50
17659;DHT22;8948;51.534;8.262;2024-02-21T07:17:43;8.50;72.30
17659;DHT22;8948;51.534;8.262;2024-02-21T07:22:44;8.50;72.30
17659;DHT22;8948;51.534;8.262;2024-02-21T07:27:45;8.60;72.00
17659;DHT22;8948;51.534;8.262;2024-02-21T07:32:45;8.60;71.40
17659;DHT22;8948;51.534;8.262;2024-02-21T07:37:46;8.70;71.10
17659;DHT22;8948;51.534;8.262;2024-02-21T07:42:46;8.90;71.20
17659;DHT22;8948;51.534;8.262;2024-02-21T07:47:47;9.00;71.20
17659;DHT22;8948;51.534;8.262;2024-02-21T07:52:47;9.00;70.30
17659;DHT22;8948;51.534;8.262;2024-02-21T07:57:48;9.00;69.50
17659;DHT22;8948;51.534;8.262;2024-02-21T08:02:49;9.00;68.50
17659;DHT22;8948;51.534;8.262;2024-02-21T08:07:50;9.00;68.30
17659;DHT22;8948;51.534;8.262;2024-02-21T08:12:51;9.00;68.10
17659;DHT22;8948;51.534;8.262;2024-02-21T08:17:51;9.10;70.30
17659;DHT22;8948;51.534;8.262;2024-02-21T08:22:52;9.20;70.10
17659;DHT22;8948;51.534;8.262;2024-02-21T08:27:58;9.20;70.30
17659;DHT22;8948;51.534;8.262;2024-02-21T08:32:58;9.40;69.60
17659;DHT22;8948;51.534;8.262;2024-02-21T08:37:59;9.40;69.80
17659;DHT22;8948;51.534;8.262;2024-02-21T08:42:59;9.40;69.20
17659;DHT22;8948;51.534;8.262;2024-02-21T08:48:00;9.40;68.70
17659;DHT22;8948;51.534;8.262;2024-02-21T08:53:00;9.50;69.20
17659;DHT22;8948;51.534;8.262;2024-02-21T08:58:01;9.60;67.80
17659;DHT22;8948;51.534;8.262;2024-02-21T09:03:04;9.50;68.50
17659;DHT22;8948;51.534;8.262;2024-02-21T09:08:05;9.50;67.70
17659;DHT22;8948;51.534;8.262;2024-02-21T09:13:06;9.50;68.00
17659;DHT22;8948;51.534;8.262;2024-02-21T09:18:08;9.50;68.60
17659;DHT22;8948;51.534;8.262;2024-02-21T09:23:09;9.50;68.50
17659;DHT22;8948;51.534;8.262;2024-02-21T09:28:09;9.60;68.20
17659;DHT22;8948;51.534;8.262;2024-02-21T09:33:10;9.70;68.20
17659;DHT22;8948;51.534;8.262;2024-02-21T09:38:11;9.80;68.60
17659;DHT22;8948;51.534;8.262;2024-02-21T09:43:17;10.00;67.60
17659;DHT22;8948;51.534;8.262;2024-02-21T09:53:20;10.20;67.20
17659;DHT22;8948;51.534;8.262;2024-02-21T09:58:22;10.30;66.40
17659;DHT22;8948;51.534;8.262;2024-02-21T10:03:23;10.40;66.00
17659;DHT22;8948;51.534;8.262;2024-02-21T10:08:23;10.50;65.10
17659;DHT22;8948;51.534;8.262;2024-02-21T10:13:28;10.50;65.10
17659;DHT22;8948;51.534;8.262;2024-02-21T10:18:29;10.50;65.90
17659;DHT22;8948;51.534;8.262;2024-02-21T10:23:40;10.50;65.30
17659;DHT22;8948;51.534;8.262;2024-02-21T10:28:41;10.60;65.80
17659;DHT22;8948;51.534;8.262;2024-02-21T10:33:56;10.70;66.20
17659;DHT22;8948;51.534;8.262;2024-02-21T10:38:57;10.70;65.90
17659;DHT22;8948;51.534;8.262;2024-02-21T10:43:59;10.70;66.50
17659;DHT22;8948;51.534;8.262;2024-02-21T10:49:12;10.60;65.60
17659;DHT22;8948;51.534;8.262;2024-02-21T10:59:39;10.70;67.60
17659;DHT22;8948;51.534;8.262;2024-02-21T11:04:41;10.60;67.30
17659;DHT22;8948;51.534;8.262;2024-02-21T11:09:53;10.60;67.80
17659;DHT22;8948;51.534;8.262;2024-02-21T11:15:07;10.40;67.50
17659;DHT22;8948;51.534;8.262;2024-02-21T11:20:14;10.20;68.70
17659;DHT22;8948;51.534;8.262;2024-02-21T11:25:21;10.10;68.90
17659;DHT22;8948;51.534;8.262;2024-02-21T11:30:27;10.10;68.40
17659;DHT22;8948;51.534;8.262;2024-02-21T11:35:35;10.20;69.20
17659;DHT22;8948;51.534;8.262;2024-02-21T11:40:38;10.40;67.80
17659;DHT22;8948;51.534;8.262;2024-02-21T11:45:39;10.60;67.50
17659;DHT22;8948;51.534;8.262;2024-02-21T11:50:40;10.70;67.70
17659;DHT22;8948;51.534;8.262;2024-02-21T11:55:40;10.90;64.90
17659;DHT22;8948;51.534;8.262;2024-02-21T12:00:41;10.90;65.90
17659;DHT22;8948;51.534;8.262;2024-02-21T12:05:42;10.90;63.70
17659;DHT22;8948;51.534;8.262;2024-02-21T12:10:42;11.00;63.00
17659;DHT22;8948;51.534;8.262;2024-02-21T12:15:47;11.00;65.40
17659;DHT22;8948;51.534;8.262;2024-02-21T12:20:49;11.00;65.40
17659;DHT22;8948;51.534;8.262;2024-02-21T12:25:51;10.90;63.90
17659;DHT22;8948;51.534;8.262;2024-02-21T12:30:54;10.80;64.30
17659;DHT22;8948;51.534;8.262;2024-02-21T12:35:55;10.90;64.40
17659;DHT22;8948;51.534;8.262;2024-02-21T12:40:56;10.80;64.60
17659;DHT22;8948;51.534;8.262;2024-02-21T12:45:57;10.70;64.90
17659;DHT22;8948;51.534;8.262;2024-02-21T12:50:58;10.70;63.30
17659;DHT22;8948;51.534;8.262;2024-02-21T12:55:58;10.60;64.70
17659;DHT22;8948;51.534;8.262;2024-02-21T13:00:59;10.70;63.60
17659;DHT22;8948;51.534;8.262;2024-02-21T13:06:00;10.80;64.10
17659;DHT22;8948;51.534;8.262;2024-02-21T13:11:01;10.90;63.10
17659;DHT22;8948;51.534;8.262;2024-02-21T13:16:02;10.90;62.40
17659;DHT22;8948;51.534;8.262;2024-02-21T13:21:02;10.90;61.90
17659;DHT22;8948;51.534;8.262;2024-02-21T13:26:03;11.10;61.90
17659;DHT22;8948;51.534;8.262;2024-02-21T13:31:04;11.20;60.60
17659;DHT22;8948;51.534;8.262;2024-02-21T13:36:05;11.20;60.90
17659;DHT22;8948;51.534;8.262;2024-02-21T13:41:06;11.40;61.10
17659;DHT22;8948;51.534;8.262;2024-02-21T13:46:07;11.40;60.50
17659;DHT22;8948;51.534;8.262;2024-02-21T13:51:10;11.50;59.60
17659;DHT22;8948;51.534;8.262;2024-02-21T13:56:12;11.50;59.10
17659;DHT22;8948;51.534;8.262;2024-02-21T14:01:12;11.40;58.70
17659;DHT22;8948;51.534;8.262;2024-02-21T14:06:13;11.30;59.60
17659;DHT22;8948;51.534;8.262;2024-02-21T14:11:14;11.40;59.10
17659;DHT22;8948;51.534;8.262;2024-02-21T14:16:14;11.50;59.00
17659;DHT22;8948;51.534;8.262;2024-02-21T14:21:15;11.50;59.40
17659;DHT22;8948;51.534;8.262;2024-02-21T14:26:16;11.60;58.70
17659;DHT22;8948;51.534;8.262;2024-02-21T14:31:16;11.60;58.10
17659;DHT22;8948;51.534;8.262;2024-02-21T14:36:17;11.60;56.80
17659;DHT22;8948;51.534;8.262;2024-02-21T14:41:18;11.60;57.70
17659;DHT22;8948;51.534;8.262;2024-02-21T14:46:20;11.70;58.20
17659;DHT22;8948;51.534;8.262;2024-02-21T14:51:20;11.60;57.20
17659;DHT22;8948;51.534;8.262;2024-02-21T14:56:21;11.50;57.40
17659;DHT22;8948;51.534;8.262;2024-02-21T15:01:21;11.50;57.40
17659;DHT22;8948;51.534;8.262;2024-02-21T15:06:22;11.50;57.40
17659;DHT22;8948;51.534;8.262;2024-02-21T15:11:22;11.50;58.70
17659;DHT22;8948;51.534;8.262;2024-02-21T15:16:23;11.40;59.90
17659;DHT22;8948;51.534;8.262;2024-02-21T15:21:24;11.50;59.90
17659;DHT22;8948;51.534;8.262;2024-02-21T15:26:24;11.60;58.80
17659;DHT22;8948;51.534;8.262;2024-02-21T15:31:25;11.50;58.80
17659;DHT22;8948;51.534;8.262;2024-02-21T15:36:25;11.40;59.20
17659;DHT22;8948;51.534;8.262;2024-02-21T15:41:28;11.30;58.50
17659;DHT22;8948;51.534;8.262;2024-02-21T15:46:29;11.20;58.60
17659;DHT22;8948;51.534;8.262;2024-02-21T15:51:31;11.20;59.60
17659;DHT22;8948;51.534;8.262;2024-02-21T15:56:32;11.10;56.90
17659;DHT22;8948;51.534;8.262;2024-02-21T16:01:32;11.10;57.00
17659;DHT22;8948;51.534;8.262;2024-02-21T16:06:35;11.10;56.60
17659;DHT22;8948;51.534;8.262;2024-02-21T16:11:36;11.00;56.50
17659;DHT22;8948;51.534;8.262;2024-02-21T16:16:36;11.00;56.30
17659;DHT22;8948;51.534;8.262;2024-02-21T16:21:40;10.90;58.30
17659;DHT22;8948;51.534;8.262;2024-02-21T16:26:41;10.90;56.30
17659;DHT22;8948;51.534;8.262;2024-02-21T16:31:42;10.80;55.70
17659;DHT22;8948;51.534;8.262;2024-02-21T16:36:43;10.80;56.00
17659;DHT22;8948;51.534;8.262;2024-02-21T16:41:44;10.70;56.10
17659;DHT22;8948;51.534;8.262;2024-02-21T16:46:45;10.80;56.30
17659;DHT22;8948;51.534;8.262;2024-02-21T16:51:46;10.70;55.60
17659;DHT22;8948;51.534;8.262;2024-02-21T16:56:46;10.70;56.10
17659;DHT22;8948;51.534;8.262;2024-02-21T17:01:47;10.70;55.70
17659;DHT22;8948;51.534;8.262;2024-02-21T17:06:51;10.70;55.40
17659;DHT22;8948;51.534;8.262;2024-02-21T17:11:52;10.70;55.60
17659;DHT22;8948;51.534;8.262;2024-02-21T17:16:53;10.60;54.20
17659;DHT22;8948;51.534;8.262;2024-02-21T17:21:55;10.60;54.70
17659;DHT22;8948;51.534;8.262;2024-02-21T17:26:55;10.60;54.80
17659;DHT22;8948;51.534;8.262;2024-02-21T17:31:56;10.60;53.70
17659;DHT22;8948;51.534;8.262;2024-02-21T17:36:56;10.70;54.30
17659;DHT22;8948;51.534;8.262;2024-02-21T17:41:57;10.60;54.10
17659;DHT22;8948;51.534;8.262;2024-02-21T17:46:58;10.70;53.50
17659;DHT22;8948;51.534;8.262;2024-02-21T17:51:58;10.70;52.80
17659;DHT22;8948;51.534;8.262;2024-02-21T17:56:59;10.70;54.00
17659;DHT22;8948;51.534;8.262;2024-02-21T18:01:59;10.70;54.40
17659;DHT22;8948;51.534;8.262;2024-02-21T18:07:00;10.60;54.00
17659;DHT22;8948;51.534;8.262;2024-02-21T18:12:00;10.60;54.70
17659;DHT22;8948;51.534;8.262;2024-02-21T18:17:01;10.60;53.80
17659;DHT22;8948;51.534;8.262;2024-02-21T18:22:02;10.60;53.90
17659;DHT22;8948;51.534;8.262;2024-02-21T18:27:03;10.60;54.40
17659;DHT22;8948;51.534;8.262;2024-02-21T18:32:06;10.60;55.70
17659;DHT22;8948;51.534;8.262;2024-02-21T18:37:10;10.60;54.00
17659;DHT22;8948;51.534;8.262;2024-02-21T18:42:10;10.60;55.60
17659;DHT22;8948;51.534;8.262;2024-02-21T18:47:11;10.60;55.60
17659;DHT22;8948;51.534;8.262;2024-02-21T18:52:12;10.60;54.90
17659;DHT22;8948;51.534;8.262;2024-02-21T18:57:13;10.50;55.10
17659;DHT22;8948;51.534;8.262;2024-02-21T19:02:15;10.50;55.20
17659;DHT22;8948;51.534;8.262;2024-02-21T19:07:16;10.50;56.60
17659;DHT22;8948;51.534;8.262;2024-02-21T19:12:16;10.50;56.00
17659;DHT22;8948;51.534;8.262;2024-02-21T19:17:18;10.40;57.10
17659;DHT22;8948;51.534;8.262;2024-02-21T19:22:19;10.30;59.50
17659;DHT22;8948;51.534;8.262;2024-02-21T19:27:21;10.10;59.50
17659;DHT22;8948;51.534;8.262;2024-02-21T19:32:21;10.00;61.50
17659;DHT22;8948;51.534;8.262;2024-02-21T19:37:22;9.90;62.30
17659;DHT22;8948;51.534;8.262;2024-02-21T19:42:24;9.80;61.80
17659;DHT22;8948;51.534;8.262;2024-02-21T19:47:25;9.70;62.30
17659;DHT22;8948;51.534;8.262;2024-02-21T19:52:27;9.50;63.00
17659;DHT22;8948;51.534;8.262;2024-02-21T19:57:27;9.50;64.30
17659;DHT22;8948;51.534;8.262;2024-02-21T20:02:28;9.40;64.40
17659;DHT22;8948;51.534;8.262;2024-02-21T20:07:28;9.40;63.80
17659;DHT22;8948;51.534;8.262;2024-02-21T20:12:29;9.40;64.50
17659;DHT22;8948;51.534;8.262;2024-02-21T20:17:30;9.40;64.10
17659;DHT22;8948;51.534;8.262;2024-02-21T20:22:30;9.40;63.00
17659;DHT22;8948;51.534;8.262;2024-02-21T20:27:31;9.40;64.10
17659;DHT22;8948;51.534;8.262;2024-02-21T20:32:31;9.40;64.00
17659;DHT22;8948;51.534;8.262;2024-02-21T20:37:32;9.40;63.90
17659;DHT22;8948;51.534;8.262;2024-02-21T20:42:33;9.40;63.70
17659;DHT22;8948;51.534;8.262;2024-02-21T20:47:33;9.40;63.90
17659;DHT22;8948;51.534;8.262;2024-02-21T20:52:34;9.40;64.50
17659;DHT22;8948;51.534;8.262;2024-02-21T20:57:35;9.50;64.50
17659;DHT22;8948;51.534;8.262;2024-02-21T21:02:37;9.50;65.00
17659;DHT22;8948;51.534;8.262;2024-02-21T21:07:38;9.50;65.30
17659;DHT22;8948;51.534;8.262;2024-02-21T21:12:39;9.40;65.60
17659;DHT22;8948;51.534;8.262;2024-02-21T21:17:40;9.50;65.80
17659;DHT22;8948;51.534;8.262;2024-02-21T21:22:40;9.40;66.50
17659;DHT22;8948;51.534;8.262;2024-02-21T21:27:41;9.40;66.80
17659;DHT22;8948;51.534;8.262;2024-02-21T21:32:43;9.40;67.20
17659;DHT22;8948;51.534;8.262;2024-02-21T21:37:44;9.40;67.70
17659;DHT22;8948;51.534;8.262;2024-02-21T21:42:45;9.40;68.20
17659;DHT22;8948;51.534;8.262;2024-02-21T21:47:46;9.40;68.40
17659;DHT22;8948;51.534;8.262;2024-02-21T21:52:46;9.40;68.90
17659;DHT22;8948;51.534;8.262;2024-02-21T21:57:47;9.30;69.40
17659;DHT22;8948;51.534;8.262;2024-02-21T22:02:47;9.30;69.40
17659;DHT22;8948;51.534;8.262;2024-02-21T22:07:48;9.30;69.20
17659;DHT22;8948;51.534;8.262;2024-02-21T22:12:48;9.30;69.80
17659;DHT22;8948;51.534;8.262;2024-02-21T22:17:49;9.40;70.10
17659;DHT22;8948;51.534;8.262;2024-02-21T22:22:50;9.30;70.80
17659;DHT22;8948;51.534;8.262;2024-02-21T22:27:50;9.30;71.00
17659;DHT22;8948;51.534;8.262;2024-02-21T22:32:51;9.30;71.40
17659;DHT22;8948;51.534;8.262;2024-02-21T22:37:52;9.40;71.20
17659;DHT22;8948;51.534;8.262;2024-02-21T22:42:52;9.30;71.50
17659;DHT22;8948;51.534;8.262;2024-02-21T22:47:53;9.20;72.70
17659;DHT22;8948;51.534;8.262;2024-02-21T22:52:53;9.20;74.40
17659;DHT22;8948;51.534;8.262;2024-02-21T22:57:54;9.10;74.30
17659;DHT22;8948;51.534;8.262;2024-02-21T23:02:55;9.10;74.90
17659;DHT22;8948;51.534;8.262;2024-02-21T23:07:55;9.10;74.80
17659;DHT22;8948;51.534;8.262;2024-02-21T23:12:56;9.10;74.30
17659;DHT22;8948;51.534;8.262;2024-02-21T23:17:56;9.10;75.00
17659;DHT22;8948;51.534;8.262;2024-02-21T23:22:57;9.10;75.40
17659;DHT22;8948;51.534;8.262;2024-02-21T23:27:58;9.00;76.10
17659;DHT22;8948;51.534;8.262;2024-02-21T23:32:58;9.00;77.10
17659;DHT22;8948;51.534;8.262;2024-02-21T23:37:59;9.00;77.40
17659;DHT22;8948;51.534;8.262;2024-02-21T23:42:59;9.00;77.10
17659;DHT22;8948;51.534;8.262;2024-02-21T23:48:01;8.90;77.20
17659;DHT22;8948;51.534;8.262;2024-02-21T23:53:01;9.00;77.10
17659;DHT22;8948;51.534;8.262;2024-02-21T23:58:02;8.90;77.70
